サンフアン の空港の天気 - METARとTAF

ルイス・ムニョス・マリン国際空港 ( TJSJ / SJU ) - プエルトリコ サンフアン
飛行場実況気象(Metar)
観測時間12/14 01:56 AST (12/14 05:56 UTC)
風向・風速東南東 3m/s
視程10km以上
天気現象
少しの雲 雲底高度 880m
全天の4割程度の雲 雲底高度 1680m
気温24.4℃
湿度85%
気圧1018.4hPa
METARTJSJ 140556Z 12005KT 10SM FEW029 SCT055 24/22 A3008 RMK AO2 RAB19E30 SLP184 P0000 60000 T02440217 10261 20239 58008
過去の天気等 Google飛行場航空写真 Wunderground天気予報

過去48時間のMETAR

飛行場予報(TAF)
発表時間: 12/14 01:20 AST (12/14 05:20 UTC)
予報対象時間: 14日2時 AST ~ 15日2時 AST
風向・風速東南東 3m/s
視程10km以上
少しの雲 雲底高度 910m
全天の4割程度の雲 雲底高度 1520m
14日10時 AST から
風向・風速東 8m/s 瞬間風速 13m/s
視程10km以上
天気現象周辺でしゅう雨
全天の4割程度の雲 雲底高度 760m
全天の4割程度の雲 雲底高度 1520m
14日19時 AST から
風向・風速東 8m/s
視程10km以上
天気現象周辺でしゅう雨
全天の4割程度の雲 雲底高度 760m
全天の4割程度の雲 雲底高度 1520m
TJSJ 140520Z 1406/1506 12005KT P6SM FEW030 SCT050
FM141400 08015G25KT P6SM VCSH SCT025 SCT050
FM142300 09015KT P6SM VCSH SCT025 SCT050